Time;durP1;ratioP1;P1;durP2;ratioP2;P2;SDS_P1;SDS_P2;PMS_P1;PMS_P2;Temp;Humidity;BMP_temperature;BMP_pressure;BME280_temperature;BME280_humidity;BME280_pressure;Samples;Min_cycle;Max_cycle;Signal;HPM_P1;HPM_P2
2021/07/30 00:02:18;;;;;;;6.40;4.70;;;;;;;10.80;83.29;90634.00;4981041;28;20023;-87
2021/07/30 00:04:54;;;;;;;6.40;4.60;;;;;;;10.74;83.39;90620.44;4995768;28;20479;-85
2021/07/30 00:07:29;;;;;;;9.85;4.88;;;;;;;10.66;84.07;90624.72;4996935;28;20410;-87
2021/07/30 00:10:05;;;;;;;9.10;5.28;;;;;;;10.83;83.64;90628.13;4996285;28;20026;-87
2021/07/30 00:12:45;;;;;;;8.00;5.47;;;;;;;10.81;83.92;90632.91;4995961;28;20026;-87
2021/07/30 00:15:22;;;;;;;7.63;5.22;;;;;;;10.93;83.43;90644.03;4996380;28;20394;-87
2021/07/30 00:17:58;;;;;;;6.97;5.05;;;;;;;10.72;83.79;90640.91;4980671;28;20025;-87
2021/07/30 00:20:33;;;;;;;13.27;5.40;;;;;;;10.62;84.00;90639.53;4980100;28;20484;-87
2021/07/30 00:23:13;;;;;;;7.93;5.10;;;;;;;10.67;84.65;90635.91;4995874;28;20037;-87
2021/07/30 00:25:45;;;;;;;9.93;5.32;;;;;;;10.66;83.79;90634.41;4979952;28;20026;-85
2021/07/30 00:28:24;;;;;;;6.97;5.22;;;;;;;10.59;84.91;90629.00;4995668;28;20415;-87
2021/07/30 00:31:02;;;;;;;8.02;5.15;;;;;;;10.59;84.87;90634.22;4963375;28;20051;-87
2021/07/30 00:33:37;;;;;;;10.27;5.28;;;;;;;10.65;84.39;90633.66;4996304;28;20041;-87
2021/07/30 00:36:15;;;;;;;8.43;5.25;;;;;;;10.70;84.23;90645.66;4995451;28;20286;-87
2021/07/30 00:38:51;;;;;;;7.47;4.60;;;;;;;10.57;83.99;90645.00;4962779;28;20026;-88
2021/07/30 00:41:39;;;;;;;7.68;4.93;;;;;;;10.57;83.87;90633.81;4996096;28;20028;-87
2021/07/30 00:44:24;;;;;;;6.53;4.68;;;;;;;10.51;83.98;90634.03;4979714;28;20054;-86
2021/07/30 00:47:00;;;;;;;5.88;4.35;;;;;;;10.50;84.30;90635.16;4996477;28;20478;-87
2021/07/30 00:49:34;;;;;;;7.95;5.15;;;;;;;10.63;84.70;90629.84;4979737;28;20033;-87
2021/07/30 00:52:13;;;;;;;6.10;4.78;;;;;;;10.61;84.65;90629.44;4995422;28;20021;-87
2021/07/30 00:54:47;;;;;;;8.30;5.40;;;;;;;10.46;84.10;90636.91;4979215;28;20026;-85
2021/07/30 00:57:25;;;;;;;6.82;5.25;;;;;;;10.46;83.92;90628.34;4995508;28;20048;-87
2021/07/30 01:00:00;;;;;;;8.68;5.32;;;;;;;10.41;84.86;90629.31;5010340;23;20931;-86
2021/07/30 01:02:35;;;;;;;7.53;4.47;;;;;;;10.36;84.98;90632.19;4998815;28;20037;-86
2021/07/30 01:05:08;;;;;;;7.85;5.22;;;;;;;10.37;84.83;90628.47;5015201;28;20013;-85
2021/07/30 01:07:46;;;;;;;7.90;5.18;;;;;;;10.28;84.50;90631.25;4998658;28;20026;-86
2021/07/30 01:10:24;;;;;;;7.45;4.22;;;;;;;10.27;84.03;90634.91;4998898;28;20067;-86
2021/07/30 01:13:02;;;;;;;7.47;5.00;;;;;;;10.23;84.08;90634.03;4999035;28;20032;-86
2021/07/30 01:15:34;;;;;;;8.82;5.20;;;;;;;10.12;84.82;90627.03;4998696;28;20030;-86
2021/07/30 01:18:14;;;;;;;7.93;5.28;;;;;;;10.18;85.05;90630.94;4999665;28;20033;-85
2021/07/30 01:20:49;;;;;;;7.35;5.07;;;;;;;10.18;84.62;90625.72;5014813;28;20025;-86
2021/07/30 01:23:24;;;;;;;13.52;5.45;;;;;;;10.06;84.72;90619.44;4999830;28;20025;-86
2021/07/30 01:26:06;;;;;;;7.75;4.85;;;;;;;10.05;84.21;90623.16;4995729;28;20121;-85
2021/07/30 01:28:47;;;;;;;6.50;4.63;;;;;;;10.07;84.56;90630.66;4996547;28;20049;-86
2021/07/30 01:31:20;;;;;;;6.47;4.55;;;;;;;9.98;83.88;90617.75;4995545;28;20069;-85
2021/07/30 01:33:58;;;;;;;6.50;4.70;;;;;;;10.04;84.79;90624.25;4995297;28;20030;-86
2021/07/30 01:36:36;;;;;;;7.20;4.57;;;;;;;10.02;84.32;90629.00;4979543;28;20043;-86
2021/07/30 01:39:18;;;;;;;6.25;4.28;;;;;;;10.18;84.01;90621.25;4964101;28;20125;-85
2021/07/30 01:41:58;;;;;;;6.75;4.68;;;;;;;10.02;84.70;90618.59;4979593;28;20442;-85
2021/07/30 01:44:34;;;;;;;6.35;4.65;;;;;;;10.09;85.14;90612.06;5011138;28;20404;-85
2021/07/30 01:47:14;;;;;;;5.90;4.90;;;;;;;10.08;84.93;90621.72;5010854;28;20121;-85
2021/07/30 01:49:59;;;;;;;6.80;4.78;;;;;;;10.02;84.22;90623.06;4978432;28;20294;-86
2021/07/30 01:52:40;;;;;;;8.32;5.28;;;;;;;9.89;84.51;90614.50;4995128;28;20461;-86
2021/07/30 01:55:23;;;;;;;8.23;4.75;;;;;;;9.91;84.23;90612.34;4995056;28;20026;-85
2021/07/30 01:57:59;;;;;;;8.25;5.15;;;;;;;9.84;85.03;90617.34;4995978;28;20038;-86
2021/07/30 02:00:41;;;;;;;7.38;5.10;;;;;;;9.88;84.80;90610.41;4994602;28;20026;-86
2021/07/30 02:03:20;;;;;;;7.65;5.10;;;;;;;9.85;84.91;90603.25;4994028;28;20041;-86
2021/07/30 02:05:58;;;;;;;9.05;5.30;;;;;;;9.85;85.34;90611.06;4995130;28;20018;-86
2021/07/30 02:08:31;;;;;;;6.93;4.97;;;;;;;9.86;85.15;90610.00;4994764;28;20049;-86
2021/07/30 02:11:15;;;;;;;7.85;4.93;;;;;;;9.81;85.07;90607.59;4977396;28;20112;-85
2021/07/30 02:16:38;;;;;;;7.85;4.75;;;;;;;9.88;85.34;90600.00;4998085;28;20081;-86
2021/07/30 02:19:21;;;;;;;7.65;4.55;;;;;;;9.86;84.79;90604.78;4994968;28;20092;-86
2021/07/30 02:21:58;;;;;;;6.75;5.03;;;;;;;9.76;86.73;90594.84;4996110;28;20429;-85
2021/07/30 02:24:36;;;;;;;6.68;4.80;;;;;;;9.80;86.26;90595.69;5013067;28;20375;-86
2021/07/30 02:27:26;;;;;;;7.28;4.82;;;;;;;9.79;86.42;90594.19;4998957;28;20034;-86
2021/07/30 02:30:03;;;;;;;9.70;4.75;;;;;;;9.78;86.34;90592.66;5031216;28;20100;-86
2021/07/30 02:32:44;;;;;;;6.85;4.65;;;;;;;9.73;86.38;90591.03;4982532;28;20481;-86
2021/07/30 02:35:25;;;;;;;7.55;4.90;;;;;;;9.77;86.21;90585.94;4998720;28;20112;-85
2021/07/30 02:38:06;;;;;;;8.07;4.90;;;;;;;9.74;86.09;90584.00;5013927;28;20025;-85
2021/07/30 02:40:43;;;;;;;7.70;5.03;;;;;;;9.72;85.64;90589.53;5013613;28;20208;-85
2021/07/30 02:43:27;;;;;;;8.55;4.45;;;;;;;9.78;85.60;90580.38;4997884;28;20096;-85
2021/07/30 02:45:58;;;;;;;7.85;4.45;;;;;;;9.78;85.82;90584.84;5015439;28;20385;-86
2021/07/30 02:48:37;;;;;;;7.10;4.78;;;;;;;9.78;85.57;90582.25;5022512;28;20092;-86
2021/07/30 02:51:12;;;;;;;6.15;4.57;;;;;;;9.81;85.24;90582.34;5027441;28;20085;-86
2021/07/30 02:53:47;;;;;;;6.60;4.60;;;;;;;9.73;85.29;90575.44;5013295;28;20050;-88
2021/07/30 02:56:28;;;;;;;8.00;4.65;;;;;;;9.68;85.03;90570.47;5027824;28;20041;-86
2021/07/30 02:59:02;;;;;;;6.70;4.70;;;;;;;9.81;85.15;90573.78;4993515;28;20030;-85
2021/07/30 03:01:38;;;;;;;6.03;4.63;;;;;;;9.80;84.49;90575.63;4996384;28;20041;-87
2021/07/30 03:04:19;;;;;;;8.45;5.32;;;;;;;9.60;85.39;90576.53;5002802;28;20112;-86
2021/07/30 03:06:55;;;;;;;6.93;4.82;;;;;;;9.55;86.24;90569.72;4996972;28;20031;-85
2021/07/30 03:09:36;;;;;;;9.40;5.03;;;;;;;9.62;86.25;90563.22;4981713;28;20049;-86
2021/07/30 03:12:15;;;;;;;8.07;5.32;;;;;;;9.67;86.21;90565.59;5013638;28;20030;-86
2021/07/30 03:14:55;;;;;;;7.05;5.13;;;;;;;9.64;87.49;90571.44;5013308;28;20046;-86
2021/07/30 03:17:38;;;;;;;6.57;4.57;;;;;;;9.77;87.43;90568.47;5015075;28;20432;-87
2021/07/30 03:20:28;;;;;;;7.68;4.88;;;;;;;9.75;87.81;90562.84;5018654;28;20034;-87
2021/07/30 03:23:04;;;;;;;8.95;4.82;;;;;;;9.75;87.40;90562.06;5036381;28;20026;-86
2021/07/30 03:25:42;;;;;;;8.27;4.78;;;;;;;9.70;87.04;90559.72;5022893;28;20014;-86
2021/07/30 03:28:18;;;;;;;8.13;5.38;;;;;;;9.74;86.22;90550.16;5058244;28;20010;-89
2021/07/30 03:31:00;;;;;;;6.35;4.57;;;;;;;9.58;85.89;90548.28;5038353;28;20049;-86
2021/07/30 03:33:37;;;;;;;6.68;4.80;;;;;;;9.48;85.33;90538.31;5013896;28;20052;-85
2021/07/30 03:36:18;;;;;;;8.90;4.47;;;;;;;9.51;85.84;90545.47;4984892;28;20033;-86
2021/07/30 03:39:03;;;;;;;7.28;4.82;;;;;;;9.50;87.12;90549.13;5017804;28;20041;-86
2021/07/30 03:41:46;;;;;;;8.35;5.18;;;;;;;9.57;87.09;90541.53;5017347;28;20029;-86
2021/07/30 03:44:25;;;;;;;9.02;4.95;;;;;;;9.69;87.30;90547.81;5016573;28;20021;-85
2021/07/30 03:46:58;;;;;;;7.10;4.38;;;;;;;9.64;85.64;90545.41;5001201;28;20018;-86
2021/07/30 03:49:30;;;;;;;7.30;4.90;;;;;;;9.60;86.43;90549.78;5001425;28;20029;-85
2021/07/30 03:52:04;;;;;;;8.73;5.13;;;;;;;9.66;86.29;90546.63;4999818;28;20029;-86
2021/07/30 03:54:42;;;;;;;7.85;4.97;;;;;;;9.61;85.77;90546.09;5000104;28;20071;-85
2021/07/30 03:57:19;;;;;;;7.15;4.80;;;;;;;9.66;86.08;90548.47;5000741;28;20037;-87
2021/07/30 03:59:55;;;;;;;6.10;4.75;;;;;;;9.73;85.28;90553.84;5000145;28;20428;-86
2021/07/30 04:02:35;;;;;;;7.22;4.35;;;;;;;9.67;84.56;90555.16;4984010;28;20021;-85
2021/07/30 04:05:15;;;;;;;6.78;4.95;;;;;;;9.60;85.15;90554.97;5033231;28;20017;-85
2021/07/30 04:07:57;;;;;;;7.30;4.57;;;;;;;9.50;86.20;90551.75;5015677;28;20029;-85
2021/07/30 04:10:32;;;;;;;8.02;5.13;;;;;;;9.65;86.58;90557.38;4999854;28;20029;-85
2021/07/30 04:13:05;;;;;;;9.00;4.80;;;;;;;9.65;86.48;90552.16;5015557;28;20482;-85
2021/07/30 04:15:44;;;;;;;6.80;4.83;;;;;;;9.70;86.45;90562.31;4999749;28;20113;-85
2021/07/30 04:18:22;;;;;;;6.97;4.95;;;;;;;9.60;86.79;90560.94;4983407;28;20271;-88
2021/07/30 04:21:00;;;;;;;8.55;4.55;;;;;;;9.65;86.29;90559.97;4999364;28;20444;-86
2021/07/30 04:23:34;;;;;;;9.20;5.45;;;;;;;9.74;85.78;90563.16;5032677;28;20029;-87
2021/07/30 04:26:17;;;;;;;6.30;4.57;;;;;;;9.83;86.38;90563.81;4979828;28;20026;-86
2021/07/30 04:28:56;;;;;;;7.82;5.20;;;;;;;9.86;87.04;90562.38;4994173;28;20040;-86
2021/07/30 04:31:33;;;;;;;7.22;4.72;;;;;;;9.84;86.34;90552.28;4979861;28;20244;-87
2021/07/30 04:34:06;;;;;;;6.30;4.65;;;;;;;9.85;86.25;90558.25;4996057;28;20045;-86
2021/07/30 04:36:42;;;;;;;5.75;4.53;;;;;;;9.91;84.43;90549.88;4995437;28;20406;-86
2021/07/30 04:39:20;;;;;;;7.43;4.78;;;;;;;9.93;85.90;90558.13;4995090;28;20129;-86
2021/07/30 04:41:58;;;;;;;7.32;4.72;;;;;;;9.93;86.67;90547.72;4980015;28;20112;-86
2021/07/30 04:44:35;;;;;;;7.03;4.75;;;;;;;10.05;86.54;90554.69;4996062;28;20375;-87
2021/07/30 04:47:14;;;;;;;8.57;5.05;;;;;;;10.14;86.06;90547.50;4979709;28;20025;-86
2021/07/30 04:49:57;;;;;;;6.85;5.18;;;;;;;10.21;85.71;90554.72;4995073;28;20050;-85
2021/07/30 04:52:37;;;;;;;7.25;5.18;;;;;;;10.18;86.04;90552.81;4996096;28;20156;-86
2021/07/30 04:55:12;;;;;;;6.32;4.38;;;;;;;10.24;85.70;90556.66;4979026;28;20037;-86
2021/07/30 04:57:53;;;;;;;8.35;5.30;;;;;;;10.29;86.11;90559.06;4994922;28;20018;-86
2021/07/30 05:00:22;;;;;;;8.23;4.97;;;;;;;10.40;85.71;90554.88;4996819;28;20479;-86
2021/07/30 05:02:58;;;;;;;6.65;4.85;;;;;;;10.48;85.69;90559.16;4981588;28;20036;-85
2021/07/30 05:05:38;;;;;;;7.35;5.03;;;;;;;10.55;85.44;90561.19;5015310;28;20393;-86
2021/07/30 05:08:10;;;;;;;9.55;4.80;;;;;;;10.57;85.17;90542.63;5032118;28;20025;-86
2021/07/30 05:10:47;;;;;;;7.50;4.85;;;;;;;10.66;84.45;90546.56;4978353;28;20400;-87
2021/07/30 05:13:21;;;;;;;7.45;5.05;;;;;;;10.60;85.71;90542.72;4979815;28;20068;-86
2021/07/30 05:15:55;;;;;;;6.68;5.32;;;;;;;10.74;85.96;90547.47;4979166;28;20398;-86
2021/07/30 05:18:33;;;;;;;6.70;5.10;;;;;;;10.81;85.60;90549.50;4979639;28;20033;-87
2021/07/30 05:21:12;;;;;;;7.45;4.75;;;;;;;10.89;85.32;90556.41;4979460;28;20030;-87
2021/07/30 05:23:44;;;;;;;8.60;5.65;;;;;;;11.00;85.26;90544.34;4997839;28;20397;-88
2021/07/30 05:26:11;;;;;;;8.05;5.22;;;;;;;11.10;84.96;90548.31;4998456;28;20064;-87
2021/07/30 05:28:48;;;;;;;5.82;4.75;;;;;;;11.16;85.00;90544.31;5014694;28;20116;-86
2021/07/30 05:31:23;;;;;;;5.25;4.40;;;;;;;11.21;85.08;90544.06;4998499;28;20029;-86
2021/07/30 05:34:08;;;;;;;7.50;4.95;;;;;;;11.24;84.66;90544.16;5014575;28;20555;-86
2021/07/30 05:37:00;;;;;;;5.75;4.60;;;;;;;11.38;84.44;90548.91;5015429;28;20534;-86
2021/07/30 05:39:42;;;;;;;7.47;5.32;;;;;;;11.48;84.49;90558.03;5014112;28;20116;-86
2021/07/30 05:42:17;;;;;;;7.93;5.22;;;;;;;11.61;84.65;90553.47;4997770;28;20034;-85
2021/07/30 05:44:52;;;;;;;10.23;5.85;;;;;;;11.69;84.96;90549.91;5015742;28;20028;-86
2021/07/30 05:47:29;;;;;;;6.43;4.70;;;;;;;11.94;86.23;90547.78;4997931;28;20030;-86
2021/07/30 05:50:00;;;;;;;7.13;5.18;;;;;;;12.05;85.19;90548.00;4981551;28;20025;-86
2021/07/30 05:52:43;;;;;;;7.75;5.45;;;;;;;12.20;84.81;90549.78;4998080;28;20536;-85
2021/07/30 05:55:16;;;;;;;8.77;5.47;;;;;;;12.23;85.09;90537.91;4982519;28;20083;-85
2021/07/30 05:57:54;;;;;;;8.10;5.88;;;;;;;12.29;85.29;90539.84;5013698;28;20033;-86
2021/07/30 06:00:32;;;;;;;7.25;5.50;;;;;;;12.39;85.08;90536.66;4998170;28;20033;-86
2021/07/30 06:03:04;;;;;;;8.18;6.05;;;;;;;12.53;86.09;90535.41;5014375;28;20032;-86
2021/07/30 06:05:40;;;;;;;8.93;6.40;;;;;;;12.80;86.39;90534.34;4998320;28;20398;-86
2021/07/30 06:08:22;;;;;;;7.95;6.18;;;;;;;12.96;87.04;90530.84;4982284;28;20025;-86
2021/07/30 06:10:55;;;;;;;7.40;5.65;;;;;;;13.12;86.74;90521.00;5014739;28;20035;-86
2021/07/30 06:13:33;;;;;;;7.80;5.80;;;;;;;13.27;84.72;90520.13;4981920;28;20030;-86
2021/07/30 06:16:18;;;;;;;7.65;6.40;;;;;;;13.59;86.25;90525.03;5014577;28;20030;-86
2021/07/30 06:18:57;;;;;;;8.43;6.15;;;;;;;13.77;85.22;90523.38;5014403;28;20029;-87
2021/07/30 06:21:30;;;;;;;8.63;6.05;;;;;;;13.97;85.39;90513.50;4981509;28;20029;-86
2021/07/30 06:24:12;;;;;;;8.23;6.00;;;;;;;14.14;84.59;90512.19;4998284;28;20021;-86
2021/07/30 06:26:47;;;;;;;7.82;5.57;;;;;;;14.30;84.21;90510.09;4993390;28;20034;-86
2021/07/30 06:29:23;;;;;;;7.97;5.70;;;;;;;14.42;83.91;90522.22;4993607;28;20030;-86
2021/07/30 06:32:00;;;;;;;9.10;5.78;;;;;;;14.56;81.09;90524.22;4993882;28;20080;-86
2021/07/30 06:34:36;;;;;;;8.05;5.75;;;;;;;14.67;81.25;90532.94;4979045;28;20490;-85
2021/07/30 06:37:15;;;;;;;7.95;5.93;;;;;;;14.79;82.18;90532.66;4979201;28;20382;-85
2021/07/30 06:39:51;;;;;;;7.85;5.43;;;;;;;14.93;81.76;90523.41;4998272;28;20030;-86
2021/07/30 06:42:27;;;;;;;8.30;6.18;;;;;;;15.07;82.54;90534.00;4998264;28;20061;-86
2021/07/30 06:45:05;;;;;;;9.20;5.68;;;;;;;15.22;80.58;90540.09;4982571;28;20482;-86
2021/07/30 06:47:33;;;;;;;7.80;5.60;;;;;;;15.34;79.57;90542.44;5013763;28;20029;-87
2021/07/30 06:49:59;;;;;;;9.02;5.65;;;;;;;15.48;79.72;90547.78;4997391;28;20061;-88
2021/07/30 06:52:32;;;;;;;9.07;6.43;;;;;;;15.58;82.92;90551.56;4997379;28;20559;-87
2021/07/30 06:54:59;;;;;;;7.82;6.20;;;;;;;15.71;79.10;90544.94;4998323;28;20482;-86
2021/07/30 06:57:27;;;;;;;7.18;5.50;;;;;;;15.98;79.80;90547.31;5014681;28;20029;-86
2021/07/30 06:59:54;;;;;;;8.25;5.70;;;;;;;16.21;80.54;90544.38;5028298;23;20069;31
2021/07/30 07:02:20;;;;;;;7.53;6.10;;;;;;;16.40;80.95;90556.47;4938058;28;20042;-87
2021/07/30 07:04:46;;;;;;;8.25;6.20;;;;;;;16.62;79.81;90558.03;4964230;28;20054;-88
2021/07/30 07:07:11;;;;;;;7.85;5.63;;;;;;;16.78;76.26;90549.81;4982802;28;20487;-88
2021/07/30 07:09:37;;;;;;;8.63;5.43;;;;;;;17.02;71.60;90548.31;4975175;28;20030;-88
2021/07/30 07:12:02;;;;;;;7.32;5.88;;;;;;;17.24;73.33;90537.78;4926220;28;20035;-87
2021/07/30 07:14:29;;;;;;;7.03;5.43;;;;;;;17.49;71.23;90543.81;4937210;29;20490;-87
2021/07/30 07:16:54;;;;;;;7.35;5.65;;;;;;;17.56;67.92;90538.53;4936269;29;20488;-88
2021/07/30 07:19:19;;;;;;;8.32;5.15;;;;;;;17.64;67.81;90545.28;4924857;28;20077;-88
2021/07/30 07:21:45;;;;;;;7.03;5.47;;;;;;;17.87;66.77;90549.38;4955595;28;20034;-88
2021/07/30 07:24:10;;;;;;;7.25;5.38;;;;;;;18.02;66.68;90550.84;4939661;28;20399;-88
2021/07/30 07:26:36;;;;;;;8.10;5.25;;;;;;;18.13;67.41;90548.94;4924772;29;20476;-88
2021/07/30 07:29:05;;;;;;;7.75;5.50;;;;;;;18.31;63.74;90543.59;4920716;29;20076;-87
2021/07/30 07:31:31;;;;;;;6.50;5.13;;;;;;;18.37;64.62;90547.34;4936436;29;20046;-88
2021/07/30 07:33:56;;;;;;;12.90;5.75;;;;;;;18.37;64.95;90546.56;4920191;29;20074;-87
2021/07/30 07:36:21;;;;;;;7.55;5.40;;;;;;;18.42;63.02;90543.53;4940408;28;20061;-89
2021/07/30 07:38:47;;;;;;;7.93;5.40;;;;;;;18.46;63.26;90543.50;4955431;28;20031;-87
2021/07/30 07:41:12;;;;;;;8.70;5.85;;;;;;;18.29;62.29;90545.84;4954757;28;20101;-89
2021/07/30 07:43:38;;;;;;;8.27;5.53;;;;;;;18.31;64.41;90543.59;4939392;28;20463;-86
2021/07/30 07:46:03;;;;;;;6.25;5.00;;;;;;;18.32;65.57;90544.31;4955421;28;20471;-88
2021/07/30 07:48:29;;;;;;;8.93;5.60;;;;;;;18.55;62.04;90539.31;4954828;28;20031;-88
2021/07/30 07:50:54;;;;;;;6.50;5.40;;;;;;;18.63;64.22;90542.66;4972159;28;20034;-88
2021/07/30 07:53:20;;;;;;;7.47;5.47;;;;;;;18.68;60.48;90542.25;4939239;28;20023;-87
2021/07/30 07:55:45;;;;;;;6.43;5.20;;;;;;;18.60;61.95;90531.00;4954879;28;20019;-87
2021/07/30 07:58:11;;;;;;;7.57;5.53;;;;;;;18.67;61.28;90532.09;4955189;28;20031;-88
2021/07/30 08:00:37;;;;;;;8.88;5.10;;;;;;;18.68;60.93;90538.88;4954680;28;20038;-89
2021/07/30 08:03:03;;;;;;;7.97;5.65;;;;;;;18.68;60.29;90523.78;4939213;28;20026;-88
2021/07/30 08:05:29;;;;;;;8.02;5.75;;;;;;;18.63;61.78;90532.84;4939317;28;20554;-88
2021/07/30 08:07:55;;;;;;;6.85;5.10;;;;;;;18.87;60.54;90519.94;4955210;28;20061;-88
2021/07/30 08:10:21;;;;;;;6.18;5.30;;;;;;;18.80;62.11;90520.72;4968949;28;20032;-88
2021/07/30 08:12:47;;;;;;;8.93;5.93;;;;;;;18.97;62.89;90520.97;4919956;29;20393;-89
2021/07/30 08:15:13;;;;;;;9.32;5.57;;;;;;;19.11;61.11;90516.31;4935435;29;20090;-89
2021/07/30 08:17:40;;;;;;;7.35;5.50;;;;;;;19.21;60.96;90537.78;4919201;29;20075;-89
2021/07/30 08:20:07;;;;;;;7.72;5.57;;;;;;;19.37;60.23;90521.44;4935963;28;20146;-88
2021/07/30 08:22:32;;;;;;;7.32;5.95;;;;;;;19.46;61.02;90519.81;4933607;29;20026;-87
2021/07/30 08:24:58;;;;;;;8.90;5.80;;;;;;;19.42;60.64;90524.38;4934295;29;20039;-87
2021/07/30 08:27:23;;;;;;;11.73;6.15;;;;;;;19.51;60.52;90519.41;4935565;29;20035;-87
2021/07/30 08:29:49;;;;;;;8.95;5.95;;;;;;;19.76;62.65;90518.44;4949152;28;20027;-89
2021/07/30 08:32:15;;;;;;;8.98;6.07;;;;;;;19.91;59.73;90521.69;4935510;29;20031;-87
2021/07/30 08:34:41;;;;;;;7.07;5.95;;;;;;;19.96;59.97;90527.28;4951631;29;20015;-87
2021/07/30 08:37:07;;;;;;;7.07;5.50;;;;;;;20.12;61.00;90520.69;4935337;29;20035;-90
2021/07/30 08:39:32;;;;;;;7.85;5.90;;;;;;;20.14;59.12;90526.31;4935414;29;20495;-88
2021/07/30 08:41:59;;;;;;;9.60;6.40;;;;;;;20.34;60.62;90535.16;4913574;29;20034;-88
2021/07/30 08:44:26;;;;;;;7.93;5.82;;;;;;;20.58;58.44;90532.63;4947136;29;20019;-88
2021/07/30 08:46:54;;;;;;;7.53;5.55;;;;;;;20.72;59.09;90529.78;4930595;29;20026;-87
2021/07/30 08:49:20;;;;;;;7.47;6.18;;;;;;;20.62;58.48;90528.78;4950013;29;20051;-87
2021/07/30 08:51:50;;;;;;;7.45;6.00;;;;;;;20.56;59.85;90525.06;4916917;29;20454;-88
2021/07/30 08:54:18;;;;;;;9.82;6.35;;;;;;;20.66;59.85;90534.03;4932274;29;20023;-88
2021/07/30 08:56:45;;;;;;;8.50;6.15;;;;;;;20.75;57.96;90526.34;4946231;29;20035;-87
2021/07/30 08:59:11;;;;;;;9.05;6.00;;;;;;;20.86;58.57;90534.16;4917859;28;20031;-89
2021/07/30 09:01:37;;;;;;;9.90;6.50;;;;;;;20.76;58.00;90533.88;4930217;29;20502;-88
2021/07/30 09:04:02;;;;;;;9.45;6.07;;;;;;;20.88;58.89;90540.53;4933929;29;20035;-88
2021/07/30 09:06:28;;;;;;;8.38;6.53;;;;;;;20.77;57.89;90545.22;4918177;29;20062;-88
2021/07/30 09:08:53;;;;;;;8.00;6.30;;;;;;;20.80;57.81;90541.78;4917887;29;20055;-89
2021/07/30 09:11:29;;;;;;;9.68;6.45;;;;;;;20.95;57.20;90537.81;4952006;28;20031;-87
2021/07/30 09:13:55;;;;;;;9.18;6.32;;;;;;;20.98;56.91;90529.03;4952437;28;20046;-86
2021/07/30 09:16:21;;;;;;;10.07;6.47;;;;;;;20.85;59.52;90536.06;4952819;28;20116;-87
2021/07/30 09:18:46;;;;;;;7.22;5.93;;;;;;;20.99;57.96;90524.50;4935528;28;20426;-87
2021/07/30 09:21:16;;;;;;;8.18;5.97;;;;;;;20.94;57.44;90522.28;4951778;28;20486;-87
2021/07/30 09:23:52;;;;;;;8.23;6.55;;;;;;;20.93;55.60;90516.25;4915098;29;20412;-87
2021/07/30 09:26:29;;;;;;;11.70;6.50;;;;;;;20.95;56.97;90519.25;4953615;28;20023;-88
2021/07/30 09:28:55;;;;;;;7.75;6.18;;;;;;;20.86;59.14;90519.00;4958382;28;20038;-86
2021/07/30 09:31:34;;;;;;;8.32;6.70;;;;;;;20.99;57.59;90501.41;4929008;29;20400;-84
2021/07/30 09:34:23;;;;;;;8.65;5.97;;;;;;;20.88;56.87;90521.25;4938457;28;20102;-89
2021/07/30 09:36:53;;;;;;;8.07;6.32;;;;;;;20.84;56.28;90512.59;4954675;28;20034;-88
2021/07/30 09:39:37;;;;;;;8.93;6.40;;;;;;;20.98;56.65;90518.44;4970559;28;20023;-87
2021/07/30 09:42:08;;;;;;;10.20;7.25;;;;;;;21.03;56.08;90519.16;4956133;28;20724;-86
2021/07/30 09:44:46;;;;;;;10.23;6.63;;;;;;;20.92;56.38;90512.13;4970849;28;20026;-87
2021/07/30 09:47:12;;;;;;;7.72;6.25;;;;;;;21.28;56.52;90518.78;4953682;28;20491;-87
2021/07/30 09:49:44;;;;;;;11.38;7.47;;;;;;;21.38;55.79;90515.97;4953325;28;20113;-85
2021/07/30 09:52:34;;;;;;;8.70;6.43;;;;;;;21.48;55.80;90515.06;4970760;28;20395;-86
2021/07/30 09:55:01;;;;;;;8.32;6.57;;;;;;;21.48;55.19;90501.78;4956525;28;20019;-87
2021/07/30 09:57:28;;;;;;;9.27;6.40;;;;;;;21.46;54.58;90506.75;4937447;28;20058;-88
2021/07/30 10:00:01;;;;;;;7.72;6.28;;;;;;;21.63;55.79;90506.84;4937076;28;20057;-87
2021/07/30 10:02:28;;;;;;;8.20;6.60;;;;;;;21.55;56.16;90490.31;4937848;28;20526;-87
2021/07/30 10:04:55;;;;;;;8.65;6.82;;;;;;;21.71;55.63;90502.91;4953287;28;20034;-88
2021/07/30 10:07:24;;;;;;;9.10;6.63;;;;;;;21.68;56.44;90503.72;4953512;28;20049;-88
2021/07/30 10:10:01;;;;;;;9.88;7.05;;;;;;;22.05;54.98;90500.03;4970304;28;20034;-88
2021/07/30 10:12:28;;;;;;;10.30;7.30;;;;;;;22.13;53.80;90500.63;4904407;29;20099;-87
2021/07/30 10:14:55;;;;;;;9.70;7.05;;;;;;;22.14;52.59;90507.41;4950348;29;20079;-87
2021/07/30 10:17:30;;;;;;;8.57;7.38;;;;;;;22.10;54.05;90496.13;4934423;29;20036;-86
2021/07/30 10:20:00;;;;;;;11.27;7.60;;;;;;;22.04;54.12;90498.50;4950174;29;20142;-88
2021/07/30 10:22:32;;;;;;;11.55;7.50;;;;;;;21.89;53.35;90498.03;4918920;29;20035;-89
2021/07/30 10:24:59;;;;;;;10.07;7.07;;;;;;;21.64;53.60;90495.09;4951768;28;20028;-88
2021/07/30 10:27:26;;;;;;;9.93;8.23;;;;;;;21.53;54.33;90484.66;4938092;29;20059;-88
2021/07/30 10:30:18;;;;;;;9.52;7.68;;;;;;;21.59;55.81;90503.50;4937378;28;20097;-88
2021/07/30 10:32:56;;;;;;;11.55;8.30;;;;;;;21.47;54.76;90494.97;4938975;29;20023;-88
2021/07/30 10:35:29;;;;;;;13.00;8.90;;;;;;;21.55;56.21;90495.59;4922433;29;20020;-88
2021/07/30 10:38:21;;;;;;;13.48;9.95;;;;;;;21.49;55.23;90486.63;4955439;29;20495;-87
2021/07/30 10:41:07;;;;;;;12.45;8.90;;;;;;;21.44;55.01;90495.03;4922610;29;20065;-88
2021/07/30 10:44:01;;;;;;;13.48;9.05;;;;;;;21.51;55.31;90499.47;4954740;29;20488;-88
2021/07/30 10:46:27;;;;;;;11.07;8.77;;;;;;;21.56;56.05;90499.78;4954130;29;20031;-87
2021/07/30 10:48:59;;;;;;;9.32;8.30;;;;;;;21.73;55.50;90497.94;4937349;29;20486;-88
2021/07/30 10:51:27;;;;;;;10.63;8.52;;;;;;;21.50;56.29;90501.38;4921269;29;20030;-88
2021/07/30 10:54:08;;;;;;;9.23;7.53;;;;;;;21.69;56.04;90489.31;4921692;29;20059;-87
2021/07/30 10:56:37;;;;;;;10.50;8.95;;;;;;;21.82;56.47;90497.41;4922936;29;20043;-88
2021/07/30 10:59:10;;;;;;;11.27;8.35;;;;;;;21.96;55.61;90497.91;4953988;29;20042;-85
2021/07/30 11:01:37;;;;;;;11.70;8.32;;;;;;;21.85;55.46;90497.34;4921608;29;20110;-88
2021/07/30 11:04:07;;;;;;;11.45;8.57;;;;;;;21.96;55.18;90481.97;4954115;29;20038;-88
2021/07/30 11:06:41;;;;;;;12.88;9.65;;;;;;;21.88;56.86;90485.19;4926629;29;20027;-88
2021/07/30 11:09:16;;;;;;;11.70;9.32;;;;;;;21.98;56.05;90470.19;4953278;29;20440;-88
2021/07/30 11:11:54;;;;;;;14.25;10.65;;;;;;;22.08;53.84;90466.59;4950706;28;20034;-87
2021/07/30 11:14:40;;;;;;;12.88;10.32;;;;;;;22.10;54.91;90470.34;4957292;28;20018;-87
2021/07/30 11:17:19;;;;;;;11.48;9.40;;;;;;;22.26;54.14;90467.03;4973117;28;20058;-87
2021/07/30 11:19:51;;;;;;;11.93;9.93;;;;;;;22.13;54.49;90463.47;4956274;28;20065;-88
2021/07/30 11:22:22;;;;;;;11.05;9.23;;;;;;;22.04;55.84;90466.66;4940220;28;20019;-88
2021/07/30 11:24:52;;;;;;;13.55;9.10;;;;;;;22.27;54.73;90462.47;4939431;28;20027;-87
2021/07/30 11:27:22;;;;;;;10.23;8.57;;;;;;;22.21;54.94;90459.53;4941989;29;20095;-86
2021/07/30 11:29:53;;;;;;;10.63;8.20;;;;;;;22.05;55.15;90454.91;4937511;28;20031;-88
2021/07/30 11:32:28;;;;;;;11.00;8.45;;;;;;;22.39;56.70;90459.19;4930305;29;20020;-88
2021/07/30 11:34:59;;;;;;;12.25;8.55;;;;;;;22.34;53.83;90463.06;4937918;29;20027;-88
2021/07/30 11:37:34;;;;;;;12.32;8.32;;;;;;;22.54;54.25;90464.94;4952448;29;20086;-87
2021/07/30 11:40:02;;;;;;;9.73;8.15;;;;;;;22.50;54.33;90457.03;4935727;28;20063;-87
2021/07/30 11:42:30;;;;;;;11.55;8.02;;;;;;;22.60;53.09;90474.66;4951479;29;20051;-89
2021/07/30 11:45:04;;;;;;;9.57;8.35;;;;;;;22.22;53.92;90458.38;4932371;28;20075;-88
2021/07/30 11:47:31;;;;;;;12.17;7.83;;;;;;;22.62;54.30;90460.97;4932479;29;20035;-87
2021/07/30 11:50:13;;;;;;;10.80;8.40;;;;;;;22.57;53.18;90461.44;4952623;28;20055;-88
2021/07/30 11:52:39;;;;;;;12.50;7.70;;;;;;;22.75;54.88;90463.72;4953357;29;20046;-85
2021/07/30 11:55:19;;;;;;;10.73;7.68;;;;;;;22.66;53.30;90461.63;4933397;28;20133;-89
2021/07/30 11:57:55;;;;;;;9.40;7.32;;;;;;;22.93;55.22;90458.78;4935201;29;20046;-88
2021/07/30 12:00:25;;;;;;;10.15;7.47;;;;;;;23.38;53.23;90461.50;4963023;28;20031;-87
2021/07/30 12:02:57;;;;;;;11.75;8.07;;;;;;;23.13;51.64;90461.34;4951350;29;20035;-87
2021/07/30 12:05:38;;;;;;;10.38;8.15;;;;;;;23.11;52.38;90469.00;4967712;28;20023;-87
2021/07/30 12:08:13;;;;;;;9.85;8.00;;;;;;;23.14;51.51;90452.22;4943670;29;20083;-88
2021/07/30 12:10:39;;;;;;;10.60;8.30;;;;;;;22.83;52.56;90451.78;4938557;29;20019;-87